Time;durP1;ratioP1;P1;durP2;ratioP2;P2;SDS_P1;SDS_P2;PMS_P1;PMS_P2;Temp;Humidity;BMP_temperature;BMP_pressure;BME280_temperature;BME280_humidity;BME280_pressure;Samples;Min_cycle;Max_cycle;Signal;HPM_P1;HPM_P2
2021/12/11 00:02:28;;;;;;;57.37;24.83;;;-2.70;23.40;;;;;;5038072;28;20212;-59
2021/12/11 00:04:57;;;;;;;54.70;25.63;;;-2.70;1.00;;;;;;5036770;28;20223;-59
2021/12/11 00:07:29;;;;;;;57.90;26.43;;;-2.70;1.00;;;;;;5026153;28;20253;-59
2021/12/11 00:10:14;;;;;;;59.43;25.80;;;-2.80;1.00;;;;;;5037477;28;20224;-60
2021/12/11 00:12:52;;;;;;;46.57;24.80;;;-2.80;1.00;;;;;;5037257;28;20200;-59
2021/12/11 00:15:30;;;;;;;55.73;25.77;;;-2.80;1.00;;;;;;5034775;28;20227;-59
2021/12/11 00:18:10;;;;;;;61.23;25.80;;;-2.80;1.00;;;;;;5037418;28;20202;-60
2021/12/11 00:20:53;;;;;;;52.83;24.77;;;-2.80;1.00;;;;;;5036626;28;20253;-60
2021/12/11 00:23:34;;;;;;;50.10;23.30;;;-2.80;1.00;;;;;;5036820;28;20725;-59
2021/12/11 00:26:03;;;;;;;55.20;25.37;;;-2.80;1.00;;;;;;5037347;28;20223;-60
2021/12/11 00:28:30;;;;;;;51.03;23.13;;;-2.80;1.00;;;;;;5020539;28;20227;-60
2021/12/11 00:30:59;;;;;;;58.10;26.30;;;-2.80;1.00;;;;;;5038344;28;20204;-60
2021/12/11 00:33:32;;;;;;;51.77;22.47;;;-2.70;1.00;;;;;;5035286;28;20216;-59
2021/12/11 00:36:07;;;;;;;49.27;26.07;;;-2.70;1.00;;;;;;5038954;28;20258;-59
2021/12/11 00:38:34;;;;;;;59.87;27.00;;;-2.70;1.00;;;;;;5039255;28;20282;-60
2021/12/11 00:41:07;;;;;;;47.93;26.03;;;-2.70;1.00;;;;;;5036268;28;20211;-60
2021/12/11 00:43:35;;;;;;;45.03;25.90;;;-2.70;1.00;;;;;;5031875;28;20813;-60
2021/12/11 00:46:10;;;;;;;45.90;24.73;;;-2.70;1.00;;;;;;5030524;28;20199;-59
2021/12/11 00:48:38;;;;;;;40.30;24.43;;;-2.70;99.90;;;;;;5031875;28;20194;-60
2021/12/11 00:51:13;;;;;;;39.97;23.00;;;-2.80;99.90;;;;;;5031538;28;20635;-60
2021/12/11 00:53:47;;;;;;;38.97;23.40;;;-2.80;1.00;;;;;;5020291;28;20277;-59
2021/12/11 00:56:31;;;;;;;48.40;23.00;;;-2.80;1.00;;;;;;5033610;28;20238;-60
2021/12/11 00:59:00;;;;;;;39.53;22.37;;;-2.90;99.90;;;;;;5031807;28;20650;-60
2021/12/11 01:01:34;;;;;;;40.77;21.20;;;-2.90;99.90;;;;;;5032151;28;21387;-60
2021/12/11 01:04:22;;;;;;;35.17;20.07;;;-2.90;99.90;;;;;;5026817;28;20228;-60
2021/12/11 01:07:00;;;;;;;31.07;18.37;;;-3.00;99.90;;;;;;5030925;28;20191;-60
2021/12/11 01:09:35;;;;;;;31.93;18.60;;;-3.00;1.00;;;;;;5029662;28;20222;-59
2021/12/11 01:12:05;;;;;;;28.30;17.20;;;-2.90;1.00;;;;;;5033508;28;20195;-59
2021/12/11 01:14:51;;;;;;;28.80;16.37;;;-2.90;1.00;;;;;;5027235;28;20204;-60
2021/12/11 01:17:26;;;;;;;29.20;17.23;;;-3.00;1.00;;;;;;5030097;28;20675;-60
2021/12/11 01:19:59;;;;;;;25.70;16.50;;;-3.00;1.00;;;;;;5035274;28;20242;-59
2021/12/11 01:22:36;;;;;;;26.97;16.33;;;-3.00;1.00;;;;;;5017773;28;20242;-59
2021/12/11 01:25:23;;;;;;;24.47;16.73;;;-3.00;1.00;;;;;;5029778;28;20563;-60
2021/12/11 01:27:54;;;;;;;28.00;17.00;;;-3.00;1.00;;;;;;5030628;28;20665;-60
2021/12/11 01:30:31;;;;;;;31.87;17.90;;;-3.10;1.00;;;;;;5025180;28;20226;-59
2021/12/11 01:32:59;;;;;;;33.70;18.33;;;-3.10;1.00;;;;;;5032169;28;20629;-59
2021/12/11 01:35:27;;;;;;;29.80;17.40;;;-3.20;1.00;;;;;;5033479;28;21392;-59
2021/12/11 01:38:32;;;;;;;28.30;17.33;;;-3.20;1.00;;;;;;5017713;28;20269;-60
2021/12/11 01:41:06;;;;;;;24.90;15.10;;;-3.20;1.00;;;;;;5031415;28;20339;-59
2021/12/11 01:43:36;;;;;;;26.77;15.53;;;-3.20;1.00;;;;;;5016854;28;20196;-60
2021/12/11 01:46:05;;;;;;;28.33;16.23;;;-3.20;1.00;;;;;;5025780;28;21002;-61
2021/12/11 01:48:38;;;;;;;29.13;16.17;;;-3.20;1.00;;;;;;5009252;28;20290;-61
2021/12/11 01:51:24;;;;;;;26.10;16.60;;;-3.20;1.00;;;;;;5032143;28;20234;-59
2021/12/11 01:54:03;;;;;;;28.57;17.23;;;-3.20;1.00;;;;;;5031388;28;20186;-59
2021/12/11 01:56:33;;;;;;;25.60;16.40;;;-3.30;1.00;;;;;;5028612;28;20263;-59
2021/12/11 01:59:05;;;;;;;31.63;16.97;;;-3.30;1.00;;;;;;5032360;28;20251;-59
2021/12/11 02:01:41;;;;;;;28.07;16.90;;;-3.30;1.00;;;;;;5027104;28;20675;-59
2021/12/11 02:04:12;;;;;;;27.17;16.00;;;-3.30;99.90;;;;;;5027910;28;20328;-59
2021/12/11 02:06:42;;;;;;;23.33;15.43;;;-3.30;99.90;;;;;;5011063;28;20184;-59
2021/12/11 02:09:25;;;;;;;24.97;15.70;;;-3.30;99.90;;;;;;5031293;28;20188;-59
2021/12/11 02:12:06;;;;;;;26.70;15.07;;;-3.30;99.90;;;;;;5028969;28;20253;-59
2021/12/11 02:14:40;;;;;;;29.07;16.20;;;-3.40;99.90;;;;;;5030410;28;20196;-59
2021/12/11 02:17:30;;;;;;;28.37;16.83;;;-3.40;99.90;;;;;;5032451;28;20652;-59
2021/12/11 02:20:00;;;;;;;27.90;15.60;;;-3.40;99.90;;;;;;5033589;28;20211;-59
2021/12/11 02:22:37;;;;;;;31.20;16.23;;;-3.40;99.90;;;;;;5033922;28;20223;-60
2021/12/11 02:25:09;;;;;;;26.47;15.77;;;-3.40;1.00;;;;;;5016013;28;20238;-60
2021/12/11 02:27:46;;;;;;;29.40;17.40;;;-3.30;1.00;;;;;;5035643;28;20273;-60
2021/12/11 02:30:25;;;;;;;33.37;16.23;;;-3.10;1.00;;;;;;5033077;28;20188;-60
2021/12/11 02:33:16;;;;;;;28.23;17.90;;;-3.00;1.00;;;;;;5023279;28;21116;-59
2021/12/11 02:36:09;;;;;;;31.97;17.87;;;-2.90;1.00;;;;;;5029921;28;20644;-59
2021/12/11 02:38:59;;;;;;;32.87;17.70;;;-2.80;99.90;;;;;;5033684;28;20258;-59
2021/12/11 02:41:29;;;;;;;28.83;17.67;;;-2.70;99.90;;;;;;5017123;28;20262;-60
2021/12/11 02:44:01;;;;;;;34.27;19.27;;;-2.60;99.90;;;;;;5018472;28;20291;-60
2021/12/11 02:46:35;;;;;;;37.83;19.27;;;-2.60;1.00;;;;;;5018545;28;20823;-60
2021/12/11 02:49:17;;;;;;;41.47;20.53;;;-2.60;1.00;;;;;;5025912;28;20195;-59
2021/12/11 02:52:07;;;;;;;31.43;19.20;;;-2.60;1.00;;;;;;5026107;28;20810;-60
2021/12/11 02:54:48;;;;;;;31.97;19.27;;;-2.60;1.00;;;;;;5015355;28;20246;-60
2021/12/11 02:57:31;;;;;;;36.87;18.90;;;-2.60;1.00;;;;;;5030475;28;20198;-60
2021/12/11 03:00:21;;;;;;;29.50;20.03;;;-2.60;1.00;;;;;;5030898;28;20196;-61
2021/12/11 03:02:59;;;;;;;34.50;20.47;;;-2.70;1.00;;;;;;5032233;28;20204;-59
2021/12/11 03:05:37;;;;;;;32.37;18.20;;;-2.70;10.60;;;;;;5032107;28;20219;-59
2021/12/11 03:08:06;;;;;;;30.33;18.83;;;-2.70;89.00;;;;;;5032522;28;20775;-59
2021/12/11 03:10:36;;;;;;;31.43;19.43;;;-2.80;98.60;;;;;;5037058;28;20634;-59
2021/12/11 03:13:04;;;;;;;29.63;18.67;;;-2.80;99.90;;;;;;5014161;28;20290;-59
2021/12/11 03:15:33;;;;;;;36.17;19.07;;;-2.80;99.90;;;;;;5017851;28;20264;-59
2021/12/11 03:18:02;;;;;;;34.20;19.60;;;-2.90;99.90;;;;;;5032953;28;20208;-59
2021/12/11 03:20:29;;;;;;;28.97;18.23;;;-2.90;99.90;;;;;;5034616;28;20269;-59
2021/12/11 03:22:57;;;;;;;41.73;20.30;;;-2.80;1.00;;;;;;5033900;28;20247;-59
2021/12/11 03:25:28;;;;;;;35.87;19.43;;;-2.80;1.00;;;;;;5032683;28;20227;-58
2021/12/11 03:27:56;;;;;;;30.43;19.03;;;-2.80;1.00;;;;;;5035080;28;20307;-59
2021/12/11 03:30:28;;;;;;;34.27;19.30;;;-2.90;1.00;;;;;;5032957;28;20715;-59
2021/12/11 03:33:00;;;;;;;33.27;19.70;;;-2.90;1.00;;;;;;5028222;28;20203;-59
2021/12/11 03:35:28;;;;;;;32.50;19.83;;;-3.00;1.00;;;;;;5015121;28;20184;-59
2021/12/11 03:37:56;;;;;;;26.27;18.40;;;-3.10;1.00;;;;;;5035009;28;20195;-58
2021/12/11 03:40:25;;;;;;;35.07;18.70;;;-3.10;1.00;;;;;;5017848;28;20231;-59
2021/12/11 03:42:54;;;;;;;30.70;18.00;;;-3.20;1.00;;;;;;5033911;28;20316;-59
2021/12/11 03:45:30;;;;;;;32.80;17.30;;;-3.20;1.00;;;;;;5014419;28;21949;-59
2021/12/11 03:48:06;;;;;;;28.83;17.40;;;-3.20;1.00;;;;;;5037832;28;20183;-59
2021/12/11 03:50:35;;;;;;;34.27;18.03;;;-3.30;1.00;;;;;;5036139;28;20250;-59
2021/12/11 03:53:02;;;;;;;29.83;17.27;;;-3.30;1.00;;;;;;5036592;28;20227;-59
2021/12/11 03:55:54;;;;;;;30.47;18.43;;;-3.20;1.00;;;;;;5020288;28;20654;-59
2021/12/11 03:58:22;;;;;;;32.47;18.50;;;-3.20;1.00;;;;;;5014261;28;21071;-60
2021/12/11 04:01:08;;;;;;;33.13;17.47;;;-3.20;1.00;;;;;;5033112;28;20707;-60
2021/12/11 04:03:38;;;;;;;30.07;17.17;;;-3.20;1.00;;;;;;5033360;28;20298;-59
2021/12/11 04:06:10;;;;;;;32.57;19.27;;;-3.20;1.00;;;;;;5033233;28;20739;-59
2021/12/11 04:08:41;;;;;;;33.40;18.27;;;-3.20;1.00;;;;;;5034145;28;20183;-60
2021/12/11 04:11:16;;;;;;;31.90;18.67;;;-3.20;1.00;;;;;;5034951;28;20188;-59
2021/12/11 04:13:45;;;;;;;23.20;16.97;;;-3.30;99.90;;;;;;5032836;28;20193;-59
2021/12/11 04:16:14;;;;;;;33.33;18.63;;;-3.30;99.90;;;;;;5031496;28;20200;-59
2021/12/11 04:18:41;;;;;;;33.90;17.93;;;-3.30;99.90;;;;;;5034459;28;20281;-60
2021/12/11 04:21:10;;;;;;;26.63;16.80;;;-3.40;99.90;;;;;;5036149;28;20191;-59
2021/12/11 04:23:37;;;;;;;30.83;18.63;;;-3.40;99.90;;;;;;5033123;28;20247;-59
2021/12/11 04:26:05;;;;;;;27.73;17.83;;;-3.40;61.40;;;;;;5031845;28;20378;-59
2021/12/11 04:28:35;;;;;;;35.53;17.20;;;-3.40;16.10;;;;;;5032249;28;20265;-59
2021/12/11 04:31:08;;;;;;;32.67;18.60;;;-3.40;48.00;;;;;;5036397;28;20192;-59
2021/12/11 04:33:45;;;;;;;31.53;17.97;;;-3.30;99.90;;;;;;5018556;28;20250;-59
2021/12/11 04:36:24;;;;;;;38.13;19.73;;;-3.30;99.90;;;;;;5030115;28;20191;-59
2021/12/11 04:38:52;;;;;;;41.00;21.43;;;-3.30;99.90;;;;;;5033237;28;20258;-59
2021/12/11 04:41:27;;;;;;;35.47;19.20;;;-3.30;99.90;;;;;;5015860;28;20715;-59
2021/12/11 04:43:55;;;;;;;31.83;19.57;;;-3.30;99.90;;;;;;5032038;28;20314;-59
2021/12/11 04:46:22;;;;;;;35.47;17.73;;;-3.40;99.90;;;;;;5020106;28;20496;-59
2021/12/11 04:51:33;;;;;;;31.33;19.17;;;-3.50;28.30;;;;;;5032540;28;20290;-59
2021/12/11 04:59:49;;;;;;;27.27;16.70;;;-3.70;1.00;;;;;;5032419;28;20223;-59
2021/12/11 05:10:22;;;;;;;29.40;18.00;;;-3.60;1.00;;;;;;5040277;28;20566;-60
2021/12/11 05:12:55;;;;;;;29.43;16.17;;;-3.70;1.00;;;;;;5032511;28;20348;-60
2021/12/11 05:15:32;;;;;;;34.03;17.03;;;-3.70;1.00;;;;;;5015298;28;20267;-60
2021/12/11 05:18:01;;;;;;;27.60;18.20;;;-3.70;1.00;;;;;;5016106;28;20196;-60
2021/12/11 05:20:30;;;;;;;27.00;17.20;;;-3.70;1.00;;;;;;5032628;28;20669;-60
2021/12/11 05:22:57;;;;;;;32.60;18.30;;;-3.60;1.00;;;;;;5034149;28;20728;-60
2021/12/11 05:25:25;;;;;;;31.03;16.60;;;-3.70;1.00;;;;;;5015437;28;20299;-59
2021/12/11 05:27:53;;;;;;;32.97;17.17;;;-3.70;1.00;;;;;;5000057;28;20195;-59
2021/12/11 05:30:24;;;;;;;26.67;16.77;;;-3.70;1.00;;;;;;5030247;28;20204;-59
2021/12/11 05:32:53;;;;;;;29.57;17.33;;;-3.80;1.00;;;;;;5015695;28;20291;-59
2021/12/11 05:35:20;;;;;;;42.87;18.07;;;-3.80;1.00;;;;;;5010514;28;20328;-59
2021/12/11 05:37:48;;;;;;;25.50;16.53;;;-3.80;1.00;;;;;;5010791;28;20206;-60
2021/12/11 05:40:19;;;;;;;28.07;16.17;;;-4.00;1.00;;;;;;5011424;28;20297;-60
2021/12/11 05:42:47;;;;;;;31.47;17.07;;;-3.80;1.00;;;;;;5034212;28;20196;-59
2021/12/11 05:45:15;;;;;;;24.23;15.63;;;-3.80;1.00;;;;;;5015807;28;20269;-59
2021/12/11 05:47:43;;;;;;;25.67;16.47;;;-3.80;1.00;;;;;;5032098;28;20202;-59
2021/12/11 05:50:17;;;;;;;29.40;16.53;;;-3.80;1.00;;;;;;5029394;28;20204;-59
2021/12/11 05:52:45;;;;;;;31.23;16.63;;;-3.80;99.90;;;;;;5031724;28;20196;-59
2021/12/11 05:55:16;;;;;;;27.60;15.30;;;-3.90;99.90;;;;;;5014482;28;20204;-60
2021/12/11 05:57:50;;;;;;;32.67;15.83;;;-3.90;99.90;;;;;;5012568;28;20196;-60
2021/12/11 06:00:20;;;;;;;24.77;14.93;;;-3.90;99.90;;;;;;5031673;28;20619;-59
2021/12/11 06:02:58;;;;;;;27.23;15.70;;;-3.90;99.90;;;;;;5035522;28;20202;-59
2021/12/11 06:05:26;;;;;;;31.33;16.47;;;-3.90;99.90;;;;;;5031088;28;21002;-59
2021/12/11 06:07:53;;;;;;;27.87;16.33;;;-4.00;99.90;;;;;;5018832;28;20261;-60
2021/12/11 06:10:21;;;;;;;24.63;15.20;;;-4.00;99.90;;;;;;5032878;28;20207;-59
2021/12/11 06:12:51;;;;;;;21.10;14.67;;;-4.00;99.90;;;;;;5034693;28;20205;-59
2021/12/11 06:15:18;;;;;;;28.50;16.47;;;-3.90;99.90;;;;;;5028399;28;20261;-60
2021/12/11 06:17:46;;;;;;;26.93;16.63;;;-3.90;99.90;;;;;;5016051;28;20323;-59
2021/12/11 06:20:18;;;;;;;26.27;16.60;;;-3.90;99.90;;;;;;5016227;28;20720;-59
2021/12/11 06:22:46;;;;;;;23.93;15.07;;;-4.00;99.90;;;;;;5032902;28;20215;-59
2021/12/11 06:25:24;;;;;;;23.10;15.23;;;-3.90;99.90;;;;;;5020273;28;20304;-60
2021/12/11 06:27:51;;;;;;;26.33;15.20;;;-4.00;99.90;;;;;;5031433;28;21065;-59
2021/12/11 06:30:19;;;;;;;28.20;15.83;;;-4.00;78.10;;;;;;5036217;28;20219;-59
2021/12/11 06:32:47;;;;;;;29.50;16.67;;;-4.00;88.40;;;;;;5032489;28;20199;-59
2021/12/11 06:35:29;;;;;;;25.33;15.60;;;-3.90;97.50;;;;;;5032476;28;20655;-59
2021/12/11 06:37:57;;;;;;;26.50;14.77;;;-4.00;35.30;;;;;;5031277;28;20200;-60
2021/12/11 06:40:26;;;;;;;21.17;15.10;;;-4.00;22.00;;;;;;5029490;28;20239;-60
2021/12/11 06:42:54;;;;;;;23.83;15.57;;;-4.00;18.50;;;;;;5034034;28;20234;-60
2021/12/11 06:45:23;;;;;;;34.53;16.40;;;-4.00;18.40;;;;;;5038238;28;20192;-60
2021/12/11 06:47:50;;;;;;;30.10;16.33;;;-4.00;1.00;;;;;;5034116;28;20200;-59
2021/12/11 06:50:18;;;;;;;25.07;15.77;;;-3.90;1.00;;;;;;5021788;28;20675;-59
2021/12/11 06:52:48;;;;;;;26.10;16.70;;;-3.90;1.00;;;;;;5019765;28;20204;-58
2021/12/11 06:55:17;;;;;;;46.67;24.27;;;-3.90;1.00;;;;;;5023768;28;20502;-59
2021/12/11 06:57:45;;;;;;;52.73;31.90;;;-3.90;55.50;;;;;;5038630;28;20206;-60
2021/12/11 07:00:15;;;;;;;50.23;29.80;;;-3.90;79.90;;;;;;5033184;28;20199;-60
2021/12/11 07:02:42;;;;;;;36.37;20.10;;;-3.80;99.90;;;;;;5033715;28;20339;-60
2021/12/11 07:05:09;;;;;;;32.03;19.23;;;-3.70;99.90;;;;;;5036580;28;20218;-60
2021/12/11 07:07:37;;;;;;;37.10;22.93;;;-3.70;99.90;;;;;;5035636;28;20273;-60
2021/12/11 07:10:10;;;;;;;37.03;23.70;;;-3.80;99.90;;;;;;5001149;28;20245;-60
2021/12/11 07:12:37;;;;;;;38.47;23.57;;;-3.80;99.90;;;;;;5035666;28;20207;-59
2021/12/11 07:15:07;;;;;;;34.20;21.43;;;-3.90;99.90;;;;;;5036073;28;22075;-59
2021/12/11 07:17:34;;;;;;;34.70;21.63;;;-3.90;99.90;;;;;;5034810;28;20332;-60
2021/12/11 07:20:06;;;;;;;35.10;23.87;;;-3.90;99.90;;;;;;5035229;28;20204;-59
2021/12/11 07:22:33;;;;;;;37.53;20.80;;;-3.90;99.90;;;;;;5017502;28;20299;-59
2021/12/11 07:25:31;;;;;;;37.27;22.73;;;-3.90;99.90;;;;;;5032077;28;20664;-60
2021/12/11 07:28:03;;;;;;;48.87;25.53;;;-3.80;99.90;;;;;;5006201;28;20192;-60
2021/12/11 07:30:32;;;;;;;46.17;26.77;;;-3.70;99.90;;;;;;5034691;28;20738;-60
2021/12/11 07:33:02;;;;;;;56.63;30.33;;;-3.70;99.90;;;;;;5036832;28;20242;-60
2021/12/11 07:35:29;;;;;;;48.00;27.33;;;-3.60;99.90;;;;;;5016419;28;20239;-59
2021/12/11 07:37:56;;;;;;;40.43;24.43;;;-3.60;92.60;;;;;;5034479;28;20609;-59
2021/12/11 07:40:31;;;;;;;34.30;22.73;;;-3.60;36.00;;;;;;5002556;28;20281;-60
2021/12/11 07:42:59;;;;;;;46.63;24.40;;;-3.60;15.10;;;;;;5021495;28;20237;-59
2021/12/11 07:45:28;;;;;;;44.67;24.17;;;-3.50;99.90;;;;;;5035290;28;20189;-59
2021/12/11 07:47:55;;;;;;;37.93;22.10;;;-3.40;99.90;;;;;;5019387;28;20223;-60
2021/12/11 07:50:23;;;;;;;34.10;22.13;;;-3.30;99.90;;;;;;5009279;28;20266;-59
2021/12/11 07:52:51;;;;;;;35.33;22.97;;;-3.20;99.90;;;;;;5019141;28;20671;-59
2021/12/11 07:55:18;;;;;;;39.83;24.03;;;-3.20;99.90;;;;;;5034481;28;20279;-60
2021/12/11 07:57:45;;;;;;;43.43;24.47;;;-3.10;1.00;;;;;;5035043;28;20291;-60
2021/12/11 08:00:18;;;;;;;38.27;22.83;;;-3.00;1.00;;;;;;5035921;28;20235;-60
2021/12/11 08:02:46;;;;;;;34.43;22.10;;;-3.00;1.00;;;;;;5037277;28;20181;-60
2021/12/11 08:05:14;;;;;;;29.53;18.80;;;-3.00;99.90;;;;;;5035286;28;20318;-59
2021/12/11 08:07:42;;;;;;;34.67;20.60;;;-3.00;99.90;;;;;;5034104;28;20257;-60
2021/12/11 08:10:18;;;;;;;44.77;21.77;;;-3.00;99.90;;;;;;5038381;28;20554;-60
2021/12/11 08:12:47;;;;;;;32.57;19.53;;;-3.00;56.60;;;;;;5003158;28;20199;-60
2021/12/11 08:15:15;;;;;;;33.13;19.57;;;-2.90;1.00;;;;;;5033504;28;20729;-60
2021/12/11 08:17:44;;;;;;;34.20;19.70;;;-2.70;1.00;;;;;;5035566;28;20279;-60
2021/12/11 08:20:13;;;;;;;35.13;20.43;;;-2.60;1.00;;;;;;5034767;28;20195;-60
2021/12/11 08:22:40;;;;;;;32.97;21.67;;;-2.50;1.00;;;;;;5004099;28;20608;-59
2021/12/11 08:25:08;;;;;;;38.47;21.07;;;-2.40;1.00;;;;;;5014537;28;20245;-59
2021/12/11 08:27:35;;;;;;;33.07;21.33;;;-2.20;1.00;;;;;;5035078;28;20228;-62
2021/12/11 08:30:05;;;;;;;34.43;21.13;;;-2.00;1.00;;;;;;5036386;28;20281;-60
2021/12/11 08:32:32;;;;;;;49.10;23.70;;;-1.80;1.00;;;;;;5015550;28;20899;-59
2021/12/11 08:34:59;;;;;;;43.60;23.70;;;-1.40;1.00;;;;;;5033774;28;20228;-62
2021/12/11 08:37:26;;;;;;;44.67;24.33;;;-1.20;1.00;;;;;;5035429;28;20204;-60
2021/12/11 08:39:54;;;;;;;41.27;23.97;;;-1.10;1.00;;;;;;5033393;28;20305;-60
2021/12/11 08:42:24;;;;;;;45.07;24.77;;;-1.10;1.00;;;;;;5035122;28;20784;-59
2021/12/11 08:44:58;;;;;;;59.07;26.50;;;-1.00;1.00;;;;;;5018492;28;20197;-60
2021/12/11 08:47:26;;;;;;;58.20;26.63;;;-1.10;1.00;;;;;;5018544;28;20622;-60
2021/12/11 08:49:54;;;;;;;70.43;30.10;;;-1.10;1.00;;;;;;5033634;28;20559;-60
2021/12/11 08:52:35;;;;;;;73.57;28.43;;;-1.10;1.00;;;;;;5014331;28;20655;-59
2021/12/11 08:55:13;;;;;;;79.57;29.90;;;-1.00;87.60;;;;;;5037217;28;21084;-59
2021/12/11 08:57:41;;;;;;;77.60;28.30;;;-0.90;99.90;;;;;;5034763;28;20245;-60
2021/12/11 09:00:25;;;;;;;93.53;29.53;;;-0.90;99.90;;;;;;5033985;28;20204;-60
2021/12/11 09:03:02;;;;;;;70.13;29.07;;;-0.90;1.00;;;;;;5033442;28;20188;-60
2021/12/11 09:05:51;;;;;;;89.27;30.50;;;-0.90;1.00;;;;;;5036039;28;20269;-60
2021/12/11 09:08:23;;;;;;;82.47;29.00;;;-0.80;1.00;;;;;;5015777;28;20296;-60
2021/12/11 09:10:53;;;;;;;80.80;30.03;;;-0.60;1.00;;;;;;5033929;28;20219;-60
2021/12/11 09:13:27;;;;;;;86.10;33.57;;;-0.70;1.00;;;;;;5033269;28;20293;-60
2021/12/11 09:16:12;;;;;;;83.27;32.33;;;-0.60;98.60;;;;;;5037264;28;20841;-60
2021/12/11 09:18:49;;;;;;;83.33;30.03;;;-0.50;99.90;;;;;;5032208;28;20714;-60
2021/12/11 09:21:30;;;;;;;116.80;32.83;;;-0.40;99.90;;;;;;5035265;28;20227;-60
2021/12/11 09:24:09;;;;;;;110.20;31.87;;;-0.40;99.90;;;;;;5029504;28;20215;-59
2021/12/11 09:26:59;;;;;;;87.67;31.03;;;-0.30;99.90;;;;;;5033727;28;20249;-60
2021/12/11 09:29:59;;;;;;;105.00;33.20;;;0.00;99.90;;;;;;5031415;28;20643;-60
2021/12/11 09:32:41;;;;;;;91.80;35.83;;;-0.10;99.90;;;;;;5013166;28;20667;-60
2021/12/11 09:35:21;;;;;;;105.47;36.07;;;-0.10;99.90;;;;;;5037173;28;20307;-60
2021/12/11 09:37:50;;;;;;;114.13;35.47;;;0.00;99.90;;;;;;5018887;28;20192;-60
2021/12/11 09:40:20;;;;;;;94.30;33.57;;;0.00;99.90;;;;;;5016414;28;20400;-61
2021/12/11 09:42:47;;;;;;;106.30;36.40;;;0.00;99.90;;;;;;5033086;28;20227;-60
2021/12/11 09:45:23;;;;;;;106.63;37.57;;;0.10;99.90;;;;;;5011270;28;20251;-60
2021/12/11 09:47:59;;;;;;;104.80;37.57;;;0.10;99.90;;;;;;5033921;28;20280;-60
2021/12/11 09:50:45;;;;;;;111.73;34.97;;;0.20;99.90;;;;;;5030331;28;20266;-60
2021/12/11 09:53:14;;;;;;;100.20;35.73;;;0.30;99.90;;;;;;5026866;28;20203;-60
2021/12/11 09:55:43;;;;;;;103.50;37.27;;;0.40;99.90;;;;;;5016475;28;20261;-60
2021/12/11 09:58:16;;;;;;;101.67;36.80;;;0.40;12.60;;;;;;5035632;28;20193;-60
2021/12/11 10:01:12;;;;;;;103.17;37.13;;;0.40;1.00;;;;;;5031479;28;20291;-59
2021/12/11 10:03:54;;;;;;;107.33;40.73;;;0.50;1.00;;;;;;5028243;28;20228;-60
2021/12/11 10:06:49;;;;;;;108.17;36.93;;;0.60;1.00;;;;;;5011840;28;20196;-60
2021/12/11 10:09:23;;;;;;;99.60;34.40;;;0.70;1.00;;;;;;5022871;28;20791;-60
2021/12/11 10:12:02;;;;;;;106.83;35.97;;;0.80;99.90;;;;;;5016798;28;20674;-60
2021/12/11 10:14:37;;;;;;;96.07;33.97;;;0.90;99.90;;;;;;5032729;28;20191;-60
2021/12/11 10:17:09;;;;;;;94.03;35.90;;;1.00;99.90;;;;;;5012221;28;20207;-59
2021/12/11 10:19:38;;;;;;;80.43;33.97;;;1.00;1.00;;;;;;5018095;28;20256;-59
2021/12/11 10:22:17;;;;;;;92.20;32.43;;;1.10;14.50;;;;;;5018135;28;20649;-59
2021/12/11 10:24:45;;;;;;;87.60;32.27;;;1.10;1.00;;;;;;5028889;28;20714;-59
2021/12/11 10:27:16;;;;;;;86.50;33.47;;;1.10;1.00;;;;;;5033644;28;20351;-60
2021/12/11 10:29:45;;;;;;;86.70;32.77;;;1.10;1.00;;;;;;5032545;28;20353;-59
2021/12/11 10:32:16;;;;;;;94.67;34.97;;;1.20;1.00;;;;;;5032069;28;20702;-59
2021/12/11 10:34:49;;;;;;;92.23;33.13;;;1.30;1.00;;;;;;5032286;28;20219;-60
2021/12/11 10:37:39;;;;;;;85.07;31.63;;;1.30;1.00;;;;;;5032784;28;20258;-59
2021/12/11 10:40:13;;;;;;;79.07;31.57;;;1.30;1.00;;;;;;5031489;28;20755;-59
2021/12/11 10:42:42;;;;;;;83.27;31.63;;;1.40;1.00;;;;;;5030042;28;20253;-59
2021/12/11 10:45:15;;;;;;;84.60;33.47;;;1.40;1.00;;;;;;5031726;28;20223;-59
2021/12/11 10:47:48;;;;;;;79.27;34.83;;;1.50;1.00;;;;;;5034755;28;20188;-59
2021/12/11 10:50:28;;;;;;;77.30;32.90;;;1.50;1.00;;;;;;5034377;28;20192;-59
2021/12/11 10:52:56;;;;;;;80.83;32.80;;;1.80;1.00;;;;;;5038846;28;20222;-59
2021/12/11 10:55:26;;;;;;;78.40;31.67;;;1.80;99.90;;;;;;5039557;28;20204;-59
2021/12/11 10:57:55;;;;;;;73.17;31.20;;;1.90;99.90;;;;;;5008682;28;20698;-60
2021/12/11 11:00:28;;;;;;;77.13;32.23;;;2.00;99.90;;;;;;5038650;28;20852;-59
2021/12/11 11:02:55;;;;;;;80.50;33.43;;;2.10;99.90;;;;;;5023334;28;20200;-59
2021/12/11 11:05:26;;;;;;;70.77;29.73;;;2.40;99.90;;;;;;5036336;28;20349;-60
2021/12/11 11:07:53;;;;;;;71.67;28.37;;;2.60;1.00;;;;;;5033884;28;21068;-58
2021/12/11 11:10:25;;;;;;;54.63;25.33;;;2.90;1.00;;;;;;5033504;28;20249;-58
2021/12/11 11:12:57;;;;;;;63.97;26.20;;;3.30;1.00;;;;;;5030004;28;21031;-59
2021/12/11 11:15:26;;;;;;;58.17;27.53;;;4.00;99.90;;;;;;5033304;28;21042;-58
2021/12/11 11:17:54;;;;;;;50.93;23.60;;;6.10;1.00;;;;;;5026841;28;21794;-57
2021/12/11 11:20:29;;;;;;;45.03;22.57;;;8.00;99.90;;;;;;5017467;28;20200;-60
2021/12/11 11:22:58;;;;;;;47.57;22.60;;;9.10;1.00;;;;;;5010763;28;21300;-60
2021/12/11 11:25:30;;;;;;;44.83;23.60;;;9.80;1.00;;;;;;5018240;28;20311;-60
2021/12/11 11:28:03;;;;;;;50.53;26.40;;;10.40;1.00;;;;;;5019015;28;20446;-60
2021/12/11 11:30:36;;;;;;;52.07;27.00;;;10.10;99.90;;;;;;5038812;28;20278;-60
2021/12/11 11:33:07;;;;;;;40.00;23.40;;;9.90;1.00;;;;;;5031909;28;20204;-60
2021/12/11 11:35:38;;;;;;;42.60;22.90;;;9.90;1.00;;;;;;5035963;28;20274;-60
2021/12/11 11:38:07;;;;;;;40.57;23.33;;;9.40;1.00;;;;;;5035202;28;20205;-60
2021/12/11 11:40:36;;;;;;;49.00;24.77;;;8.90;1.00;;;;;;5033736;28;20762;-59
2021/12/11 11:43:05;;;;;;;44.40;24.30;;;8.00;1.00;;;;;;5033406;28;20269;-60
2021/12/11 11:45:33;;;;;;;44.73;24.97;;;7.10;16.00;;;;;;5035278;28;20297;-60
2021/12/11 11:48:02;;;;;;;45.50;25.43;;;6.40;99.90;;;;;;5016674;28;20774;-60
2021/12/11 11:50:33;;;;;;;47.70;25.17;;;5.60;1.00;;;;;;5032838;28;20553;-60
2021/12/11 11:53:01;;;;;;;51.20;25.77;;;5.30;1.00;;;;;;5027000;28;20271;-59
2021/12/11 11:55:32;;;;;;;52.93;25.57;;;5.10;1.00;;;;;;5035646;28;20964;-58
2021/12/11 11:57:59;;;;;;;50.47;27.67;;;5.00;1.00;;;;;;5038224;28;21251;-58
2021/12/11 12:00:41;;;;;;;55.70;27.23;;;4.90;1.00;;;;;;5021561;28;20273;-58
2021/12/11 12:03:11;;;;;;;56.40;27.73;;;4.70;1.00;;;;;;5039733;28;20206;-56
2021/12/11 12:05:39;;;;;;;57.43;26.10;;;4.30;13.10;;;;;;5038820;28;20243;-57
2021/12/11 12:08:08;;;;;;;51.57;25.03;;;4.20;70.40;;;;;;5038463;28;20198;-57
2021/12/11 12:10:36;;;;;;;52.80;25.93;;;4.20;14.60;;;;;;5037565;28;20268;-57
2021/12/11 12:13:07;;;;;;;42.67;23.40;;;4.20;55.90;;;;;;5040802;28;20281;-57
2021/12/11 12:15:44;;;;;;;53.43;26.70;;;4.20;99.90;;;;;;5038673;28;20273;-56
2021/12/11 12:18:12;;;;;;;44.17;24.30;;;4.30;99.90;;;;;;5028375;28;20199;-57
2021/12/11 12:20:40;;;;;;;47.87;24.47;;;4.60;1.00;;;;;;5046944;28;20231;-57
2021/12/11 12:23:09;;;;;;;45.70;24.10;;;4.50;1.00;;;;;;5023238;28;20202;-56
2021/12/11 12:25:39;;;;;;;55.20;26.57;;;4.60;1.00;;;;;;5040738;28;20289;-57
2021/12/11 12:28:06;;;;;;;46.57;24.50;;;4.80;1.00;;;;;;5041827;28;20185;-58
2021/12/11 12:30:38;;;;;;;44.53;24.17;;;5.10;1.00;;;;;;5041518;28;20199;-57
2021/12/11 12:33:08;;;;;;;46.70;24.27;;;5.40;1.00;;;;;;5023182;28;20205;-57
2021/12/11 12:35:36;;;;;;;45.87;22.83;;;5.70;1.00;;;;;;5024768;28;20211;-58
2021/12/11 12:38:07;;;;;;;43.93;23.10;;;5.80;1.00;;;;;;5040675;28;20230;-59
2021/12/11 12:40:55;;;;;;;44.07;23.37;;;5.60;1.00;;;;;;5020194;28;20246;-57
2021/12/11 12:46:28;;;;;;;51.03;23.57;;;4.90;1.00;;;;;;5042864;28;20227;-56
2021/12/11 12:48:56;;;;;;;43.90;22.67;;;5.00;1.00;;;;;;5021985;28;20285;-58
2021/12/11 12:51:24;;;;;;;45.57;24.07;;;5.00;1.00;;;;;;5021480;28;20303;-58
2021/12/11 12:53:52;;;;;;;39.73;22.07;;;4.70;1.00;;;;;;5020954;28;20297;-58
2021/12/11 12:56:28;;;;;;;47.23;25.13;;;4.60;1.00;;;;;;5007934;28;21012;-56
2021/12/11 12:59:10;;;;;;;50.20;25.90;;;4.30;1.00;;;;;;5040066;28;20210;-57
2021/12/11 13:01:43;;;;;;;54.40;25.93;;;4.10;95.70;;;;;;5041902;28;20202;-56
2021/12/11 13:04:17;;;;;;;50.33;25.43;;;4.00;99.90;;;;;;5047110;28;20258;-57
2021/12/11 13:06:51;;;;;;;49.13;24.77;;;3.80;99.90;;;;;;5042689;28;20209;-57
2021/12/11 13:09:32;;;;;;;50.20;25.53;;;3.80;99.90;;;;;;5008494;28;20214;-56
2021/12/11 13:12:08;;;;;;;51.93;26.93;;;3.80;99.90;;;;;;5022976;28;20323;-56
2021/12/11 13:14:37;;;;;;;51.70;25.30;;;3.80;99.90;;;;;;5021777;28;20266;-57
2021/12/11 13:17:15;;;;;;;51.30;25.80;;;3.90;99.90;;;;;;5039856;28;20199;-57
2021/12/11 13:19:49;;;;;;;59.07;26.90;;;4.00;99.90;;;;;;5025375;28;20278;-57
2021/12/11 13:22:38;;;;;;;60.37;28.83;;;4.00;99.90;;;;;;5038567;28;20633;-58
2021/12/11 13:25:14;;;;;;;59.87;28.43;;;4.10;99.90;;;;;;5020628;28;20605;-57